sensor_id;sensor_type;location;lat;lon;timestamp;temperature;humidity
20463;DHT22;10390;53.566;9.980;2023-06-10T00:00:13;30.70;1.00
20463;DHT22;10390;53.566;9.980;2023-06-10T00:02:41;30.70;1.00
20463;DHT22;10390;53.566;9.980;2023-06-10T00:05:07;30.70;1.00
20463;DHT22;10390;53.566;9.980;2023-06-10T00:07:35;30.70;1.00
20463;DHT22;10390;53.566;9.980;2023-06-10T00:10:04;30.70;1.00
20463;DHT22;10390;53.566;9.980;2023-06-10T00:12:31;30.70;1.00
20463;DHT22;10390;53.566;9.980;2023-06-10T00:15:03;30.70;1.00
20463;DHT22;10390;53.566;9.980;2023-06-10T00:17:29;30.70;1.00
20463;DHT22;10390;53.566;9.980;2023-06-10T00:19:54;30.70;1.00
20463;DHT22;10390;53.566;9.980;2023-06-10T00:22:20;30.70;1.00
20463;DHT22;10390;53.566;9.980;2023-06-10T00:24:47;30.70;1.00
20463;DHT22;10390;53.566;9.980;2023-06-10T00:27:13;30.60;1.00
20463;DHT22;10390;53.566;9.980;2023-06-10T00:29:39;30.70;1.00
20463;DHT22;10390;53.566;9.980;2023-06-10T00:32:05;30.60;1.00
20463;DHT22;10390;53.566;9.980;2023-06-10T00:34:31;30.60;1.00
20463;DHT22;10390;53.566;9.980;2023-06-10T00:36:57;30.60;1.00
20463;DHT22;10390;53.566;9.980;2023-06-10T00:39:23;30.50;1.00
20463;DHT22;10390;53.566;9.980;2023-06-10T00:41:49;30.50;1.00
20463;DHT22;10390;53.566;9.980;2023-06-10T00:44:15;30.50;1.00
20463;DHT22;10390;53.566;9.980;2023-06-10T00:46:41;30.50;1.00
20463;DHT22;10390;53.566;9.980;2023-06-10T00:49:07;30.50;1.00
20463;DHT22;10390;53.566;9.980;2023-06-10T00:51:33;30.40;1.00
20463;DHT22;10390;53.566;9.980;2023-06-10T00:54:00;30.40;1.00
20463;DHT22;10390;53.566;9.980;2023-06-10T00:56:27;30.40;1.00
20463;DHT22;10390;53.566;9.980;2023-06-10T00:58:53;30.40;1.00
20463;DHT22;10390;53.566;9.980;2023-06-10T01:01:19;30.40;1.00
20463;DHT22;10390;53.566;9.980;2023-06-10T01:03:45;30.30;1.00
20463;DHT22;10390;53.566;9.980;2023-06-10T01:09:37;30.30;1.00
20463;DHT22;10390;53.566;9.980;2023-06-10T01:12:01;30.30;1.00
20463;DHT22;10390;53.566;9.980;2023-06-10T01:14:29;30.30;1.00
20463;DHT22;10390;53.566;9.980;2023-06-10T01:16:57;30.20;1.00
20463;DHT22;10390;53.566;9.980;2023-06-10T01:19:23;30.20;1.00
20463;DHT22;10390;53.566;9.980;2023-06-10T01:21:50;30.20;1.00
20463;DHT22;10390;53.566;9.980;2023-06-10T01:24:17;30.10;1.00
20463;DHT22;10390;53.566;9.980;2023-06-10T01:26:45;30.10;1.00
20463;DHT22;10390;53.566;9.980;2023-06-10T01:29:44;30.10;1.00
20463;DHT22;10390;53.566;9.980;2023-06-10T01:32:21;30.10;1.00
20463;DHT22;10390;53.566;9.980;2023-06-10T01:34:49;30.10;1.00
20463;DHT22;10390;53.566;9.980;2023-06-10T01:37:18;30.10;1.00
20463;DHT22;10390;53.566;9.980;2023-06-10T01:39:46;30.10;1.00
20463;DHT22;10390;53.566;9.980;2023-06-10T01:42:13;30.10;1.00
20463;DHT22;10390;53.566;9.980;2023-06-10T01:44:39;30.00;1.00
20463;DHT22;10390;53.566;9.980;2023-06-10T01:47:05;30.00;1.00
20463;DHT22;10390;53.566;9.980;2023-06-10T01:49:31;30.00;1.00
20463;DHT22;10390;53.566;9.980;2023-06-10T01:51:56;30.00;1.00
20463;DHT22;10390;53.566;9.980;2023-06-10T01:54:22;30.00;1.00
20463;DHT22;10390;53.566;9.980;2023-06-10T01:56:47;30.00;1.00
20463;DHT22;10390;53.566;9.980;2023-06-10T01:59:13;30.00;1.00
20463;DHT22;10390;53.566;9.980;2023-06-10T02:01:39;30.00;1.00
20463;DHT22;10390;53.566;9.980;2023-06-10T02:04:04;29.90;1.00
20463;DHT22;10390;53.566;9.980;2023-06-10T02:06:30;30.00;1.00
20463;DHT22;10390;53.566;9.980;2023-06-10T02:08:56;29.90;1.00
20463;DHT22;10390;53.566;9.980;2023-06-10T02:11:21;29.90;1.00
20463;DHT22;10390;53.566;9.980;2023-06-10T02:13:47;29.90;1.00
20463;DHT22;10390;53.566;9.980;2023-06-10T02:16:12;29.90;1.00
20463;DHT22;10390;53.566;9.980;2023-06-10T02:18:40;29.90;1.00
20463;DHT22;10390;53.566;9.980;2023-06-10T02:21:08;29.90;1.00
20463;DHT22;10390;53.566;9.980;2023-06-10T02:23:34;29.80;1.00
20463;DHT22;10390;53.566;9.980;2023-06-10T02:26:00;29.80;1.00
20463;DHT22;10390;53.566;9.980;2023-06-10T02:28:26;29.80;1.00
20463;DHT22;10390;53.566;9.980;2023-06-10T02:30:51;29.80;1.00
20463;DHT22;10390;53.566;9.980;2023-06-10T02:33:17;29.80;1.00
20463;DHT22;10390;53.566;9.980;2023-06-10T02:35:43;29.80;1.00
20463;DHT22;10390;53.566;9.980;2023-06-10T02:38:08;29.80;1.00
20463;DHT22;10390;53.566;9.980;2023-06-10T02:40:34;29.80;1.00
20463;DHT22;10390;53.566;9.980;2023-06-10T02:42:59;29.70;1.00
20463;DHT22;10390;53.566;9.980;2023-06-10T02:45:25;29.70;1.00
20463;DHT22;10390;53.566;9.980;2023-06-10T02:47:50;29.70;1.00
20463;DHT22;10390;53.566;9.980;2023-06-10T02:50:16;29.70;1.00
20463;DHT22;10390;53.566;9.980;2023-06-10T02:52:42;29.70;1.00
20463;DHT22;10390;53.566;9.980;2023-06-10T02:55:07;29.70;1.00
20463;DHT22;10390;53.566;9.980;2023-06-10T02:57:33;29.70;1.00
20463;DHT22;10390;53.566;9.980;2023-06-10T02:59:58;29.60;1.00
20463;DHT22;10390;53.566;9.980;2023-06-10T03:02:25;29.60;1.00
20463;DHT22;10390;53.566;9.980;2023-06-10T03:04:56;29.60;1.00
20463;DHT22;10390;53.566;9.980;2023-06-10T03:07:22;29.60;1.00
20463;DHT22;10390;53.566;9.980;2023-06-10T03:09:48;29.70;1.00
20463;DHT22;10390;53.566;9.980;2023-06-10T03:12:14;29.60;1.00
20463;DHT22;10390;53.566;9.980;2023-06-10T03:14:41;29.60;1.00
20463;DHT22;10390;53.566;9.980;2023-06-10T03:17:06;29.60;1.00
20463;DHT22;10390;53.566;9.980;2023-06-10T03:19:34;29.60;1.00
20463;DHT22;10390;53.566;9.980;2023-06-10T03:22:11;29.60;1.00
20463;DHT22;10390;53.566;9.980;2023-06-10T03:24:37;29.50;1.00
20463;DHT22;10390;53.566;9.980;2023-06-10T03:27:07;29.50;1.00
20463;DHT22;10390;53.566;9.980;2023-06-10T03:29:33;29.50;1.00
20463;DHT22;10390;53.566;9.980;2023-06-10T03:31:58;29.50;1.00
20463;DHT22;10390;53.566;9.980;2023-06-10T03:34:24;29.50;1.00
20463;DHT22;10390;53.566;9.980;2023-06-10T03:36:50;29.50;1.00
20463;DHT22;10390;53.566;9.980;2023-06-10T03:39:16;29.50;1.00
20463;DHT22;10390;53.566;9.980;2023-06-10T03:41:41;29.50;1.00
20463;DHT22;10390;53.566;9.980;2023-06-10T03:44:07;29.50;1.00
20463;DHT22;10390;53.566;9.980;2023-06-10T03:46:32;29.50;1.00
20463;DHT22;10390;53.566;9.980;2023-06-10T03:48:58;29.50;1.00
20463;DHT22;10390;53.566;9.980;2023-06-10T03:51:26;29.40;1.00
20463;DHT22;10390;53.566;9.980;2023-06-10T03:53:52;29.40;1.00
20463;DHT22;10390;53.566;9.980;2023-06-10T03:56:18;29.50;1.00
20463;DHT22;10390;53.566;9.980;2023-06-10T03:58:43;29.40;1.00
20463;DHT22;10390;53.566;9.980;2023-06-10T04:01:09;29.40;1.00
20463;DHT22;10390;53.566;9.980;2023-06-10T04:03:36;29.40;1.00
20463;DHT22;10390;53.566;9.980;2023-06-10T04:06:01;29.40;1.00
20463;DHT22;10390;53.566;9.980;2023-06-10T04:08:28;29.30;1.00
20463;DHT22;10390;53.566;9.980;2023-06-10T04:10:54;29.30;1.00
20463;DHT22;10390;53.566;9.980;2023-06-10T04:13:20;29.30;1.00
20463;DHT22;10390;53.566;9.980;2023-06-10T04:15:45;29.30;1.00
20463;DHT22;10390;53.566;9.980;2023-06-10T04:18:11;29.30;1.00
20463;DHT22;10390;53.566;9.980;2023-06-10T04:20:37;29.30;1.00
20463;DHT22;10390;53.566;9.980;2023-06-10T04:23:03;29.30;1.00
20463;DHT22;10390;53.566;9.980;2023-06-10T04:25:29;29.30;1.00
20463;DHT22;10390;53.566;9.980;2023-06-10T04:27:54;29.30;1.00
20463;DHT22;10390;53.566;9.980;2023-06-10T04:30:20;29.30;1.00
20463;DHT22;10390;53.566;9.980;2023-06-10T04:32:46;29.20;1.00
20463;DHT22;10390;53.566;9.980;2023-06-10T04:35:12;29.20;1.00
20463;DHT22;10390;53.566;9.980;2023-06-10T04:37:39;29.20;1.00
20463;DHT22;10390;53.566;9.980;2023-06-10T04:40:05;29.20;1.00
20463;DHT22;10390;53.566;9.980;2023-06-10T04:42:31;29.20;1.00
20463;DHT22;10390;53.566;9.980;2023-06-10T04:44:57;29.20;1.00
20463;DHT22;10390;53.566;9.980;2023-06-10T04:47:23;29.20;1.00
20463;DHT22;10390;53.566;9.980;2023-06-10T04:49:48;29.20;1.00
20463;DHT22;10390;53.566;9.980;2023-06-10T04:52:14;29.20;1.00
20463;DHT22;10390;53.566;9.980;2023-06-10T04:54:40;29.20;1.00
20463;DHT22;10390;53.566;9.980;2023-06-10T04:57:06;29.20;1.00
20463;DHT22;10390;53.566;9.980;2023-06-10T04:59:33;29.20;1.00
20463;DHT22;10390;53.566;9.980;2023-06-10T05:02:03;29.20;1.00
20463;DHT22;10390;53.566;9.980;2023-06-10T05:04:28;29.20;1.00
20463;DHT22;10390;53.566;9.980;2023-06-10T05:06:55;29.20;1.00
20463;DHT22;10390;53.566;9.980;2023-06-10T05:09:21;29.20;1.00
20463;DHT22;10390;53.566;9.980;2023-06-10T05:11:46;29.20;1.00
20463;DHT22;10390;53.566;9.980;2023-06-10T05:14:12;29.20;1.00
20463;DHT22;10390;53.566;9.980;2023-06-10T05:16:38;29.20;1.00
20463;DHT22;10390;53.566;9.980;2023-06-10T05:19:04;29.20;1.00
20463;DHT22;10390;53.566;9.980;2023-06-10T05:21:30;29.20;1.00
20463;DHT22;10390;53.566;9.980;2023-06-10T05:23:55;29.20;1.00
20463;DHT22;10390;53.566;9.980;2023-06-10T05:26:21;29.20;1.00
20463;DHT22;10390;53.566;9.980;2023-06-10T05:28:47;29.30;1.00
20463;DHT22;10390;53.566;9.980;2023-06-10T05:31:13;29.30;1.00
20463;DHT22;10390;53.566;9.980;2023-06-10T05:33:39;29.30;1.00
20463;DHT22;10390;53.566;9.980;2023-06-10T05:36:05;29.30;1.00
20463;DHT22;10390;53.566;9.980;2023-06-10T05:38:30;29.40;1.00
20463;DHT22;10390;53.566;9.980;2023-06-10T05:40:56;29.40;1.00
20463;DHT22;10390;53.566;9.980;2023-06-10T05:43:22;29.40;1.00
20463;DHT22;10390;53.566;9.980;2023-06-10T05:45:48;29.40;1.00
20463;DHT22;10390;53.566;9.980;2023-06-10T05:48:13;29.40;1.00
20463;DHT22;10390;53.566;9.980;2023-06-10T05:50:39;29.50;1.00
20463;DHT22;10390;53.566;9.980;2023-06-10T05:53:08;29.50;1.00
20463;DHT22;10390;53.566;9.980;2023-06-10T05:55:42;29.50;1.00
20463;DHT22;10390;53.566;9.980;2023-06-10T05:58:07;29.60;1.00
20463;DHT22;10390;53.566;9.980;2023-06-10T06:00:33;29.60;1.00
20463;DHT22;10390;53.566;9.980;2023-06-10T06:02:59;29.70;1.00
20463;DHT22;10390;53.566;9.980;2023-06-10T06:05:24;29.70;1.00
20463;DHT22;10390;53.566;9.980;2023-06-10T06:07:50;29.80;1.00
20463;DHT22;10390;53.566;9.980;2023-06-10T06:10:17;29.80;1.00
20463;DHT22;10390;53.566;9.980;2023-06-10T06:12:43;29.80;1.00
20463;DHT22;10390;53.566;9.980;2023-06-10T06:15:10;29.90;1.00
20463;DHT22;10390;53.566;9.980;2023-06-10T06:17:35;29.90;1.00
20463;DHT22;10390;53.566;9.980;2023-06-10T06:20:02;30.00;1.00
20463;DHT22;10390;53.566;9.980;2023-06-10T06:22:28;30.00;1.00
20463;DHT22;10390;53.566;9.980;2023-06-10T06:24:53;30.00;1.00
20463;DHT22;10390;53.566;9.980;2023-06-10T06:27:19;30.10;1.00
20463;DHT22;10390;53.566;9.980;2023-06-10T06:29:46;30.10;1.00
20463;DHT22;10390;53.566;9.980;2023-06-10T06:32:12;30.10;1.00
20463;DHT22;10390;53.566;9.980;2023-06-10T06:34:38;30.10;1.00
20463;DHT22;10390;53.566;9.980;2023-06-10T06:37:03;30.10;1.00
20463;DHT22;10390;53.566;9.980;2023-06-10T06:39:29;30.20;1.00
20463;DHT22;10390;53.566;9.980;2023-06-10T06:41:54;30.20;1.00
20463;DHT22;10390;53.566;9.980;2023-06-10T06:44:20;30.20;1.00
20463;DHT22;10390;53.566;9.980;2023-06-10T06:46:46;30.30;1.00
20463;DHT22;10390;53.566;9.980;2023-06-10T06:49:11;30.30;1.00
20463;DHT22;10390;53.566;9.980;2023-06-10T06:51:37;30.30;1.00
20463;DHT22;10390;53.566;9.980;2023-06-10T06:54:02;30.30;1.00
20463;DHT22;10390;53.566;9.980;2023-06-10T06:56:28;30.30;1.00
20463;DHT22;10390;53.566;9.980;2023-06-10T06:58:54;30.40;1.00
20463;DHT22;10390;53.566;9.980;2023-06-10T07:01:20;30.40;1.00
20463;DHT22;10390;53.566;9.980;2023-06-10T07:03:45;30.40;1.00
20463;DHT22;10390;53.566;9.980;2023-06-10T07:06:12;30.40;1.00
20463;DHT22;10390;53.566;9.980;2023-06-10T07:08:38;30.40;1.00
20463;DHT22;10390;53.566;9.980;2023-06-10T07:11:04;30.50;1.00
20463;DHT22;10390;53.566;9.980;2023-06-10T07:13:29;30.50;1.00
20463;DHT22;10390;53.566;9.980;2023-06-10T07:15:55;30.50;1.00
20463;DHT22;10390;53.566;9.980;2023-06-10T07:18:21;30.50;1.00
20463;DHT22;10390;53.566;9.980;2023-06-10T07:20:46;30.50;1.00
20463;DHT22;10390;53.566;9.980;2023-06-10T07:23:12;30.60;1.00
20463;DHT22;10390;53.566;9.980;2023-06-10T07:25:37;30.60;1.00
20463;DHT22;10390;53.566;9.980;2023-06-10T07:28:03;30.60;1.00
20463;DHT22;10390;53.566;9.980;2023-06-10T07:30:29;30.60;1.00
20463;DHT22;10390;53.566;9.980;2023-06-10T07:32:54;30.70;1.00
20463;DHT22;10390;53.566;9.980;2023-06-10T07:35:21;30.70;1.00
20463;DHT22;10390;53.566;9.980;2023-06-10T07:37:46;30.70;1.00
20463;DHT22;10390;53.566;9.980;2023-06-10T07:40:12;30.80;1.00
20463;DHT22;10390;53.566;9.980;2023-06-10T07:42:38;30.80;1.00
20463;DHT22;10390;53.566;9.980;2023-06-10T07:45:04;30.80;1.00
20463;DHT22;10390;53.566;9.980;2023-06-10T07:47:30;30.90;1.00
20463;DHT22;10390;53.566;9.980;2023-06-10T07:49:56;30.90;1.00
20463;DHT22;10390;53.566;9.980;2023-06-10T07:52:22;30.90;1.00
20463;DHT22;10390;53.566;9.980;2023-06-10T07:54:47;31.00;1.00
20463;DHT22;10390;53.566;9.980;2023-06-10T07:57:13;31.00;1.00
20463;DHT22;10390;53.566;9.980;2023-06-10T07:59:38;31.10;1.00
20463;DHT22;10390;53.566;9.980;2023-06-10T08:02:05;31.10;1.00
20463;DHT22;10390;53.566;9.980;2023-06-10T08:04:31;31.10;1.00
20463;DHT22;10390;53.566;9.980;2023-06-10T08:07:04;31.10;1.00
20463;DHT22;10390;53.566;9.980;2023-06-10T08:09:31;31.10;1.00
20463;DHT22;10390;53.566;9.980;2023-06-10T08:11:59;31.20;1.00
20463;DHT22;10390;53.566;9.980;2023-06-10T08:14:32;31.20;1.00
20463;DHT22;10390;53.566;9.980;2023-06-10T08:16:58;31.20;1.00
20463;DHT22;10390;53.566;9.980;2023-06-10T08:19:24;31.20;1.00
20463;DHT22;10390;53.566;9.980;2023-06-10T08:21:52;31.20;1.00
20463;DHT22;10390;53.566;9.980;2023-06-10T08:24:20;31.30;1.00
20463;DHT22;10390;53.566;9.980;2023-06-10T08:26:47;31.30;1.00
20463;DHT22;10390;53.566;9.980;2023-06-10T08:29:12;31.30;1.00
20463;DHT22;10390;53.566;9.980;2023-06-10T08:31:44;31.30;1.00
20463;DHT22;10390;53.566;9.980;2023-06-10T08:34:09;31.30;1.00
20463;DHT22;10390;53.566;9.980;2023-06-10T08:36:35;31.40;1.00
20463;DHT22;10390;53.566;9.980;2023-06-10T08:39:01;31.40;1.00
20463;DHT22;10390;53.566;9.980;2023-06-10T08:41:28;31.40;1.00
20463;DHT22;10390;53.566;9.980;2023-06-10T08:44:12;31.40;1.00
20463;DHT22;10390;53.566;9.980;2023-06-10T08:46:45;31.40;1.00
20463;DHT22;10390;53.566;9.980;2023-06-10T08:49:15;31.40;1.00
20463;DHT22;10390;53.566;9.980;2023-06-10T08:51:42;31.50;1.00
20463;DHT22;10390;53.566;9.980;2023-06-10T08:54:16;31.50;1.00
20463;DHT22;10390;53.566;9.980;2023-06-10T08:56:45;31.50;1.00
20463;DHT22;10390;53.566;9.980;2023-06-10T08:59:12;31.50;1.00
20463;DHT22;10390;53.566;9.980;2023-06-10T09:01:38;31.50;1.00
20463;DHT22;10390;53.566;9.980;2023-06-10T09:04:04;31.50;1.00
20463;DHT22;10390;53.566;9.980;2023-06-10T09:06:32;31.50;1.00
20463;DHT22;10390;53.566;9.980;2023-06-10T09:08:59;31.60;1.00
20463;DHT22;10390;53.566;9.980;2023-06-10T09:11:25;31.50;1.00
20463;DHT22;10390;53.566;9.980;2023-06-10T09:13:51;31.60;1.00
20463;DHT22;10390;53.566;9.980;2023-06-10T09:16:16;31.60;1.00
20463;DHT22;10390;53.566;9.980;2023-06-10T09:18:42;31.50;1.00
20463;DHT22;10390;53.566;9.980;2023-06-10T09:21:08;31.50;1.00
20463;DHT22;10390;53.566;9.980;2023-06-10T09:23:35;31.60;1.00
20463;DHT22;10390;53.566;9.980;2023-06-10T09:26:02;31.60;1.00
20463;DHT22;10390;53.566;9.980;2023-06-10T09:28:30;31.60;1.00
20463;DHT22;10390;53.566;9.980;2023-06-10T09:31:03;31.50;1.00
20463;DHT22;10390;53.566;9.980;2023-06-10T09:33:29;31.50;1.00
20463;DHT22;10390;53.566;9.980;2023-06-10T09:35:55;31.50;1.00
20463;DHT22;10390;53.566;9.980;2023-06-10T09:38:22;31.50;1.00
20463;DHT22;10390;53.566;9.980;2023-06-10T09:40:52;31.50;1.00
20463;DHT22;10390;53.566;9.980;2023-06-10T09:43:19;31.50;1.00
20463;DHT22;10390;53.566;9.980;2023-06-10T09:45:48;31.50;1.00
20463;DHT22;10390;53.566;9.980;2023-06-10T09:48:14;31.50;1.00
20463;DHT22;10390;53.566;9.980;2023-06-10T09:50:43;31.50;1.00
20463;DHT22;10390;53.566;9.980;2023-06-10T09:53:10;31.50;1.00
20463;DHT22;10390;53.566;9.980;2023-06-10T09:55:38;31.50;1.00
20463;DHT22;10390;53.566;9.980;2023-06-10T09:58:04;31.50;1.00
20463;DHT22;10390;53.566;9.980;2023-06-10T10:00:33;31.50;1.00
20463;DHT22;10390;53.566;9.980;2023-06-10T10:02:59;31.50;1.00
20463;DHT22;10390;53.566;9.980;2023-06-10T10:05:24;31.50;1.00
20463;DHT22;10390;53.566;9.980;2023-06-10T10:07:50;31.50;1.00
20463;DHT22;10390;53.566;9.980;2023-06-10T10:10:19;31.50;1.00
20463;DHT22;10390;53.566;9.980;2023-06-10T10:12:46;31.50;1.00
20463;DHT22;10390;53.566;9.980;2023-06-10T10:15:12;31.50;1.00
20463;DHT22;10390;53.566;9.980;2023-06-10T10:17:58;31.50;1.00
20463;DHT22;10390;53.566;9.980;2023-06-10T10:20:29;31.50;1.00
20463;DHT22;10390;53.566;9.980;2023-06-10T10:22:58;31.50;1.00
20463;DHT22;10390;53.566;9.980;2023-06-10T10:25:28;31.50;1.00
20463;DHT22;10390;53.566;9.980;2023-06-10T10:28:02;31.50;1.00
20463;DHT22;10390;53.566;9.980;2023-06-10T10:30:30;31.50;1.00
20463;DHT22;10390;53.566;9.980;2023-06-10T10:33:00;31.50;1.00
20463;DHT22;10390;53.566;9.980;2023-06-10T10:35:32;31.50;1.00
20463;DHT22;10390;53.566;9.980;2023-06-10T10:37:58;31.50;1.00
20463;DHT22;10390;53.566;9.980;2023-06-10T10:40:25;31.50;1.00
20463;DHT22;10390;53.566;9.980;2023-06-10T10:42:55;31.50;1.00
20463;DHT22;10390;53.566;9.980;2023-06-10T10:45:21;31.50;1.00
20463;DHT22;10390;53.566;9.980;2023-06-10T10:47:52;31.50;1.00
20463;DHT22;10390;53.566;9.980;2023-06-10T10:50:20;31.50;1.00
20463;DHT22;10390;53.566;9.980;2023-06-10T10:52:54;31.50;1.00
20463;DHT22;10390;53.566;9.980;2023-06-10T10:55:24;31.50;1.00
20463;DHT22;10390;53.566;9.980;2023-06-10T10:58:05;31.50;1.00
20463;DHT22;10390;53.566;9.980;2023-06-10T11:00:33;31.50;1.00
20463;DHT22;10390;53.566;9.980;2023-06-10T11:03:06;31.50;1.00
20463;DHT22;10390;53.566;9.980;2023-06-10T11:08:03;31.50;1.00
20463;DHT22;10390;53.566;9.980;2023-06-10T11:10:39;31.50;1.00
20463;DHT22;10390;53.566;9.980;2023-06-10T11:13:15;31.50;1.00
20463;DHT22;10390;53.566;9.980;2023-06-10T11:15:48;31.50;1.00
20463;DHT22;10390;53.566;9.980;2023-06-10T11:18:28;31.50;1.00
20463;DHT22;10390;53.566;9.980;2023-06-10T11:20:57;31.50;1.00
20463;DHT22;10390;53.566;9.980;2023-06-10T11:23:30;31.50;1.00
20463;DHT22;10390;53.566;9.980;2023-06-10T11:26:29;31.50;1.00
20463;DHT22;10390;53.566;9.980;2023-06-10T11:33:58;31.50;1.00
20463;DHT22;10390;53.566;9.980;2023-06-10T11:36:26;31.40;1.00
20463;DHT22;10390;53.566;9.980;2023-06-10T11:39:03;31.40;1.00
20463;DHT22;10390;53.566;9.980;2023-06-10T11:41:30;31.40;1.00
20463;DHT22;10390;53.566;9.980;2023-06-10T11:44:10;31.40;1.00
20463;DHT22;10390;53.566;9.980;2023-06-10T11:46:36;31.40;1.00
20463;DHT22;10390;53.566;9.980;2023-06-10T11:49:03;31.40;1.00
20463;DHT22;10390;53.566;9.980;2023-06-10T11:51:38;31.30;1.00
20463;DHT22;10390;53.566;9.980;2023-06-10T11:54:04;31.40;1.00
20463;DHT22;10390;53.566;9.980;2023-06-10T11:56:31;31.30;1.00
20463;DHT22;10390;53.566;9.980;2023-06-10T11:59:04;31.30;1.00
20463;DHT22;10390;53.566;9.980;2023-06-10T12:01:34;31.30;1.00
20463;DHT22;10390;53.566;9.980;2023-06-10T12:04:05;31.30;1.00
20463;DHT22;10390;53.566;9.980;2023-06-10T12:09:15;31.20;1.00
20463;DHT22;10390;53.566;9.980;2023-06-10T12:11:43;31.30;1.00
20463;DHT22;10390;53.566;9.980;2023-06-10T12:14:11;31.20;1.00
20463;DHT22;10390;53.566;9.980;2023-06-10T12:16:37;31.20;1.00
20463;DHT22;10390;53.566;9.980;2023-06-10T12:19:04;31.20;1.00
20463;DHT22;10390;53.566;9.980;2023-06-10T12:21:32;31.20;1.00
20463;DHT22;10390;53.566;9.980;2023-06-10T12:24:06;31.20;1.00
20463;DHT22;10390;53.566;9.980;2023-06-10T12:26:42;31.20;1.00
20463;DHT22;10390;53.566;9.980;2023-06-10T12:29:24;31.20;1.00
20463;DHT22;10390;53.566;9.980;2023-06-10T12:32:01;31.20;1.00
20463;DHT22;10390;53.566;9.980;2023-06-10T12:34:39;31.20;1.00
20463;DHT22;10390;53.566;9.980;2023-06-10T12:37:09;31.20;1.00
20463;DHT22;10390;53.566;9.980;2023-06-10T12:39:39;31.20;1.00
20463;DHT22;10390;53.566;9.980;2023-06-10T12:42:05;31.20;1.00
20463;DHT22;10390;53.566;9.980;2023-06-10T12:44:38;31.20;1.00
20463;DHT22;10390;53.566;9.980;2023-06-10T12:47:08;31.30;1.00
20463;DHT22;10390;53.566;9.980;2023-06-10T12:49:35;31.30;1.00
20463;DHT22;10390;53.566;9.980;2023-06-10T12:52:01;31.20;1.00
20463;DHT22;10390;53.566;9.980;2023-06-10T12:54:27;31.30;1.00
20463;DHT22;10390;53.566;9.980;2023-06-10T12:56:52;31.30;1.00
20463;DHT22;10390;53.566;9.980;2023-06-10T12:59:18;31.30;1.00
20463;DHT22;10390;53.566;9.980;2023-06-10T13:01:49;31.30;1.00
20463;DHT22;10390;53.566;9.980;2023-06-10T13:04:16;31.30;1.00
20463;DHT22;10390;53.566;9.980;2023-06-10T13:06:41;31.30;1.00
20463;DHT22;10390;53.566;9.980;2023-06-10T13:09:07;31.30;1.00
20463;DHT22;10390;53.566;9.980;2023-06-10T13:11:33;31.30;1.00
20463;DHT22;10390;53.566;9.980;2023-06-10T13:13:58;31.30;1.00
20463;DHT22;10390;53.566;9.980;2023-06-10T13:16:24;31.30;1.00
20463;DHT22;10390;53.566;9.980;2023-06-10T13:18:52;31.30;1.00
20463;DHT22;10390;53.566;9.980;2023-06-10T13:21:17;31.30;1.00
20463;DHT22;10390;53.566;9.980;2023-06-10T13:23:44;31.30;1.00
20463;DHT22;10390;53.566;9.980;2023-06-10T13:26:11;31.30;1.00
20463;DHT22;10390;53.566;9.980;2023-06-10T13:28:37;31.30;1.00
20463;DHT22;10390;53.566;9.980;2023-06-10T13:31:03;31.20;1.00
20463;DHT22;10390;53.566;9.980;2023-06-10T13:33:29;31.30;1.00
20463;DHT22;10390;53.566;9.980;2023-06-10T13:35:54;31.20;1.00
20463;DHT22;10390;53.566;9.980;2023-06-10T13:38:20;31.20;1.00
20463;DHT22;10390;53.566;9.980;2023-06-10T13:40:45;31.20;1.00
20463;DHT22;10390;53.566;9.980;2023-06-10T13:43:11;31.20;1.00
20463;DHT22;10390;53.566;9.980;2023-06-10T13:45:38;31.20;1.00
20463;DHT22;10390;53.566;9.980;2023-06-10T13:48:04;31.20;1.00
20463;DHT22;10390;53.566;9.980;2023-06-10T13:50:31;31.20;1.00
20463;DHT22;10390;53.566;9.980;2023-06-10T13:52:56;31.20;1.00
20463;DHT22;10390;53.566;9.980;2023-06-10T13:55:22;31.10;1.00
20463;DHT22;10390;53.566;9.980;2023-06-10T13:57:50;31.20;1.00
20463;DHT22;10390;53.566;9.980;2023-06-10T14:00:16;31.10;1.00
20463;DHT22;10390;53.566;9.980;2023-06-10T14:02:41;31.10;1.00
20463;DHT22;10390;53.566;9.980;2023-06-10T14:05:07;31.10;1.00
20463;DHT22;10390;53.566;9.980;2023-06-10T14:07:34;31.10;1.00
20463;DHT22;10390;53.566;9.980;2023-06-10T14:09:59;31.10;1.00
20463;DHT22;10390;53.566;9.980;2023-06-10T14:12:25;31.10;1.00
20463;DHT22;10390;53.566;9.980;2023-06-10T14:14:51;31.10;1.00
20463;DHT22;10390;53.566;9.980;2023-06-10T14:17:16;31.10;1.00
20463;DHT22;10390;53.566;9.980;2023-06-10T14:19:42;31.10;1.00
20463;DHT22;10390;53.566;9.980;2023-06-10T14:22:07;31.10;1.00
20463;DHT22;10390;53.566;9.980;2023-06-10T14:24:34;31.10;1.00
20463;DHT22;10390;53.566;9.980;2023-06-10T14:27:00;31.00;1.00
20463;DHT22;10390;53.566;9.980;2023-06-10T14:29:26;31.10;1.00
20463;DHT22;10390;53.566;9.980;2023-06-10T14:31:54;31.10;1.00
20463;DHT22;10390;53.566;9.980;2023-06-10T14:34:20;31.10;1.00
20463;DHT22;10390;53.566;9.980;2023-06-10T14:36:46;31.10;1.00
20463;DHT22;10390;53.566;9.980;2023-06-10T14:39:11;31.10;1.00
20463;DHT22;10390;53.566;9.980;2023-06-10T14:41:37;31.10;1.00
20463;DHT22;10390;53.566;9.980;2023-06-10T14:44:03;31.10;1.00
20463;DHT22;10390;53.566;9.980;2023-06-10T14:46:28;31.10;1.00
20463;DHT22;10390;53.566;9.980;2023-06-10T14:48:54;31.10;1.00
20463;DHT22;10390;53.566;9.980;2023-06-10T14:51:19;31.10;1.00
20463;DHT22;10390;53.566;9.980;2023-06-10T14:53:46;31.10;1.00
20463;DHT22;10390;53.566;9.980;2023-06-10T14:56:12;31.10;1.00
20463;DHT22;10390;53.566;9.980;2023-06-10T14:58:38;31.10;1.00
20463;DHT22;10390;53.566;9.980;2023-06-10T15:01:03;31.10;1.00
20463;DHT22;10390;53.566;9.980;2023-06-10T15:03:29;31.10;1.00
20463;DHT22;10390;53.566;9.980;2023-06-10T15:05:55;31.10;1.00
20463;DHT22;10390;53.566;9.980;2023-06-10T15:08:20;31.10;1.00
20463;DHT22;10390;53.566;9.980;2023-06-10T15:10:46;31.00;1.00
20463;DHT22;10390;53.566;9.980;2023-06-10T15:13:13;31.00;1.00
20463;DHT22;10390;53.566;9.980;2023-06-10T15:15:39;31.00;1.00
20463;DHT22;10390;53.566;9.980;2023-06-10T15:18:05;31.00;1.00
20463;DHT22;10390;53.566;9.980;2023-06-10T15:20:30;31.00;1.00
20463;DHT22;10390;53.566;9.980;2023-06-10T15:22:56;31.00;1.00
20463;DHT22;10390;53.566;9.980;2023-06-10T15:25:21;31.00;1.00
20463;DHT22;10390;53.566;9.980;2023-06-10T15:27:47;31.10;1.00
20463;DHT22;10390;53.566;9.980;2023-06-10T15:30:13;31.10;1.00
20463;DHT22;10390;53.566;9.980;2023-06-10T15:32:38;31.10;1.00
20463;DHT22;10390;53.566;9.980;2023-06-10T15:35:04;31.10;1.00
20463;DHT22;10390;53.566;9.980;2023-06-10T15:37:30;31.10;1.00
20463;DHT22;10390;53.566;9.980;2023-06-10T15:39:56;31.10;1.00
20463;DHT22;10390;53.566;9.980;2023-06-10T15:42:21;31.10;1.00
20463;DHT22;10390;53.566;9.980;2023-06-10T15:44:48;31.10;1.00
20463;DHT22;10390;53.566;9.980;2023-06-10T15:47:14;31.10;1.00
20463;DHT22;10390;53.566;9.980;2023-06-10T15:49:40;31.10;1.00
20463;DHT22;10390;53.566;9.980;2023-06-10T15:52:05;31.10;1.00
20463;DHT22;10390;53.566;9.980;2023-06-10T15:54:31;31.10;1.00
20463;DHT22;10390;53.566;9.980;2023-06-10T15:56:58;31.10;1.00